sensor_id;sensor_type;location;lat;lon;timestamp;pressure;altitude;pressure_sealevel;temperature;humidity
60820;BME280;46641;48.904;9.126;2023-05-24T00:01:21;98888.34;;;21.49;47.56
60820;BME280;46641;48.904;9.126;2023-05-24T00:06:14;98882.63;;;21.45;47.60
60820;BME280;46641;48.904;9.126;2023-05-24T00:11:06;98890.00;;;21.43;47.78
60820;BME280;46641;48.904;9.126;2023-05-24T00:15:56;98890.41;;;21.40;47.70
60820;BME280;46641;48.904;9.126;2023-05-24T00:20:46;98891.88;;;21.36;47.92
60820;BME280;46641;48.904;9.126;2023-05-24T00:25:37;98885.06;;;21.34;47.74
60820;BME280;46641;48.904;9.126;2023-05-24T00:30:27;98885.69;;;21.29;47.80
60820;BME280;46641;48.904;9.126;2023-05-24T00:35:17;98886.53;;;21.23;47.83
60820;BME280;46641;48.904;9.126;2023-05-24T00:40:08;98873.41;;;21.15;47.49
60820;BME280;46641;48.904;9.126;2023-05-24T00:44:58;98877.94;;;21.08;47.91
60820;BME280;46641;48.904;9.126;2023-05-24T00:49:49;98874.66;;;21.06;48.20
60820;BME280;46641;48.904;9.126;2023-05-24T00:54:39;98871.81;;;21.00;48.21
60820;BME280;46641;48.904;9.126;2023-05-24T00:59:30;98871.41;;;20.97;47.98
60820;BME280;46641;48.904;9.126;2023-05-24T01:04:20;98877.13;;;20.94;48.10
60820;BME280;46641;48.904;9.126;2023-05-24T01:24:52;98878.34;;;20.78;48.36
60820;BME280;46641;48.904;9.126;2023-05-24T01:29:44;98874.88;;;20.77;48.66
60820;BME280;46641;48.904;9.126;2023-05-24T01:34:42;98874.88;;;20.77;48.55
60820;BME280;46641;48.904;9.126;2023-05-24T01:39:32;98877.13;;;20.74;48.51
60820;BME280;46641;48.904;9.126;2023-05-24T01:44:30;98873.03;;;20.71;48.74
60820;BME280;46641;48.904;9.126;2023-05-24T01:49:30;98877.94;;;20.68;48.82
60820;BME280;46641;48.904;9.126;2023-05-24T01:54:25;98884.69;;;20.64;48.86
60820;BME280;46641;48.904;9.126;2023-05-24T01:59:17;98891.41;;;20.60;48.89
60820;BME280;46641;48.904;9.126;2023-05-24T02:04:07;98888.75;;;20.53;48.99
60820;BME280;46641;48.904;9.126;2023-05-24T02:08:58;98890.81;;;20.51;48.88
60820;BME280;46641;48.904;9.126;2023-05-24T02:13:48;98885.06;;;20.47;49.04
60820;BME280;46641;48.904;9.126;2023-05-24T02:18:38;98889.13;;;20.43;49.35
60820;BME280;46641;48.904;9.126;2023-05-24T02:23:29;98893.19;;;20.39;49.19
60820;BME280;46641;48.904;9.126;2023-05-24T02:28:19;98895.84;;;20.33;49.18
60820;BME280;46641;48.904;9.126;2023-05-24T02:33:09;98901.34;;;20.31;48.91
60820;BME280;46641;48.904;9.126;2023-05-24T02:38:01;98900.75;;;20.29;49.22
60820;BME280;46641;48.904;9.126;2023-05-24T02:42:55;98897.84;;;20.24;49.24
60820;BME280;46641;48.904;9.126;2023-05-24T02:47:45;98903.56;;;20.21;49.74
60820;BME280;46641;48.904;9.126;2023-05-24T02:52:36;98898.66;;;20.18;49.56
60820;BME280;46641;48.904;9.126;2023-05-24T02:57:26;98893.75;;;20.15;49.47
60820;BME280;46641;48.904;9.126;2023-05-24T03:02:17;98891.50;;;20.12;49.82
60820;BME280;46641;48.904;9.126;2023-05-24T03:07:08;98894.56;;;20.08;49.75
60820;BME280;46641;48.904;9.126;2023-05-24T03:11:59;98894.13;;;20.05;49.70
60820;BME280;46641;48.904;9.126;2023-05-24T03:16:49;98896.97;;;20.03;49.76
60820;BME280;46641;48.904;9.126;2023-05-24T03:21:40;98897.19;;;20.02;49.92
60820;BME280;46641;48.904;9.126;2023-05-24T03:26:30;98896.75;;;19.98;49.99
60820;BME280;46641;48.904;9.126;2023-05-24T03:31:21;98887.53;;;19.94;50.05
60820;BME280;46641;48.904;9.126;2023-05-24T03:36:13;98895.91;;;19.91;49.88
60820;BME280;46641;48.904;9.126;2023-05-24T03:41:04;98887.13;;;19.91;50.09
60820;BME280;46641;48.904;9.126;2023-05-24T03:45:54;98888.34;;;19.88;50.14
60820;BME280;46641;48.904;9.126;2023-05-24T03:50:45;98886.28;;;19.83;50.03
60820;BME280;46641;48.904;9.126;2023-05-24T03:55:36;98878.88;;;19.79;50.06
60820;BME280;46641;48.904;9.126;2023-05-24T04:00:26;98885.84;;;19.73;50.07
60820;BME280;46641;48.904;9.126;2023-05-24T04:05:16;98881.31;;;19.67;50.36
60820;BME280;46641;48.904;9.126;2023-05-24T04:10:07;98881.84;;;19.62;50.21
60820;BME280;46641;48.904;9.126;2023-05-24T04:14:58;98884.88;;;19.59;50.34
60820;BME280;46641;48.904;9.126;2023-05-24T04:19:49;98888.97;;;19.55;50.16
60820;BME280;46641;48.904;9.126;2023-05-24T04:24:40;98883.03;;;19.53;50.74
60820;BME280;46641;48.904;9.126;2023-05-24T04:29:30;98889.16;;;19.54;50.38
60820;BME280;46641;48.904;9.126;2023-05-24T04:34:22;98883.22;;;19.52;50.59
60820;BME280;46641;48.904;9.126;2023-05-24T04:39:12;98898.34;;;19.51;50.60
60820;BME280;46641;48.904;9.126;2023-05-24T04:44:02;98898.94;;;19.47;50.64
60820;BME280;46641;48.904;9.126;2023-05-24T04:48:53;98907.09;;;19.45;50.38
60820;BME280;46641;48.904;9.126;2023-05-24T04:53:43;98905.19;;;19.39;50.81
60820;BME280;46641;48.904;9.126;2023-05-24T04:58:33;98910.50;;;19.39;50.61
60820;BME280;46641;48.904;9.126;2023-05-24T05:03:24;98912.25;;;19.25;47.79
60820;BME280;46641;48.904;9.126;2023-05-24T05:08:14;98923.06;;;18.96;46.86
60820;BME280;46641;48.904;9.126;2023-05-24T05:13:04;98916.41;;;18.63;47.01
60820;BME280;46641;48.904;9.126;2023-05-24T05:17:55;98920.75;;;18.71;47.08
60820;BME280;46641;48.904;9.126;2023-05-24T05:22:46;98919.09;;;18.85;46.99
60820;BME280;46641;48.904;9.126;2023-05-24T05:27:36;98920.41;;;18.96;47.27
60820;BME280;46641;48.904;9.126;2023-05-24T05:32:27;98919.59;;;18.95;47.02
60820;BME280;46641;48.904;9.126;2023-05-24T05:37:17;98912.88;;;18.99;47.10
60820;BME280;46641;48.904;9.126;2023-05-24T05:42:07;98910.03;;;19.01;47.55
60820;BME280;46641;48.904;9.126;2023-05-24T05:46:57;98903.91;;;19.00;47.61
60820;BME280;46641;48.904;9.126;2023-05-24T05:51:48;98897.78;;;19.00;47.76
60820;BME280;46641;48.904;9.126;2023-05-24T05:56:42;98903.50;;;19.03;47.95
60820;BME280;46641;48.904;9.126;2023-05-24T06:01:34;98912.66;;;19.01;48.04
60820;BME280;46641;48.904;9.126;2023-05-24T06:06:25;98905.09;;;18.98;47.94
60820;BME280;46641;48.904;9.126;2023-05-24T06:11:15;98900.00;;;18.96;48.23
60820;BME280;46641;48.904;9.126;2023-05-24T06:16:05;98906.56;;;19.00;48.51
60820;BME280;46641;48.904;9.126;2023-05-24T06:20:57;98901.06;;;19.02;48.43
60820;BME280;46641;48.904;9.126;2023-05-24T06:25:48;98910.66;;;19.03;48.25
60820;BME280;46641;48.904;9.126;2023-05-24T06:30:38;98919.81;;;19.00;48.58
60820;BME280;46641;48.904;9.126;2023-05-24T06:35:28;98916.16;;;19.01;48.60
60820;BME280;46641;48.904;9.126;2023-05-24T06:40:19;98935.72;;;19.00;48.32
60820;BME280;46641;48.904;9.126;2023-05-24T06:45:10;98932.47;;;18.98;48.38
60820;BME280;46641;48.904;9.126;2023-05-24T06:50:01;98937.13;;;18.96;48.80
60820;BME280;46641;48.904;9.126;2023-05-24T06:54:53;98950.84;;;19.00;48.83
60820;BME280;46641;48.904;9.126;2023-05-24T06:59:43;98959.16;;;18.97;48.79
60820;BME280;46641;48.904;9.126;2023-05-24T07:04:33;98964.41;;;18.90;48.78
60820;BME280;46641;48.904;9.126;2023-05-24T07:09:24;98968.09;;;18.89;48.77
60820;BME280;46641;48.904;9.126;2023-05-24T07:14:14;98973.41;;;18.89;48.95
60820;BME280;46641;48.904;9.126;2023-05-24T07:19:05;98972.94;;;18.85;49.25
60820;BME280;46641;48.904;9.126;2023-05-24T07:23:56;98971.56;;;18.89;49.08
60820;BME280;46641;48.904;9.126;2023-05-24T07:28:46;98980.34;;;18.90;49.21
60820;BME280;46641;48.904;9.126;2023-05-24T07:33:37;98982.97;;;18.90;49.26
60820;BME280;46641;48.904;9.126;2023-05-24T07:38:27;98977.94;;;18.95;49.26
60820;BME280;46641;48.904;9.126;2023-05-24T07:43:19;98990.81;;;18.98;49.02
60820;BME280;46641;48.904;9.126;2023-05-24T07:48:09;98981.22;;;18.97;49.12
60820;BME280;46641;48.904;9.126;2023-05-24T07:53:00;98992.63;;;18.98;48.75
60820;BME280;46641;48.904;9.126;2023-05-24T07:57:50;99000.97;;;18.95;49.07
60820;BME280;46641;48.904;9.126;2023-05-24T08:02:41;99002.00;;;18.94;49.21
60820;BME280;46641;48.904;9.126;2023-05-24T08:07:31;99003.25;;;18.98;49.20
60820;BME280;46641;48.904;9.126;2023-05-24T08:12:22;99005.09;;;18.97;49.32
60820;BME280;46641;48.904;9.126;2023-05-24T08:17:14;99003.06;;;18.99;49.12
60820;BME280;46641;48.904;9.126;2023-05-24T08:22:05;99007.19;;;19.02;49.27
60820;BME280;46641;48.904;9.126;2023-05-24T08:26:56;99008.63;;;19.04;48.94
60820;BME280;46641;48.904;9.126;2023-05-24T08:31:46;99013.91;;;19.04;49.25
60820;BME280;46641;48.904;9.126;2023-05-24T08:36:36;99008.63;;;19.04;48.94
60820;BME280;46641;48.904;9.126;2023-05-24T08:41:28;99010.28;;;19.05;48.96
60820;BME280;46641;48.904;9.126;2023-05-24T08:46:18;99019.31;;;19.11;49.07
60820;BME280;46641;48.904;9.126;2023-05-24T08:51:09;99018.47;;;19.10;49.26
60820;BME280;46641;48.904;9.126;2023-05-24T08:56:00;99022.03;;;19.18;49.15
60820;BME280;46641;48.904;9.126;2023-05-24T09:00:52;99020.63;;;19.22;49.43
60820;BME280;46641;48.904;9.126;2023-05-24T09:05:43;99024.75;;;19.24;49.22
60820;BME280;46641;48.904;9.126;2023-05-24T09:10:34;99019.22;;;19.26;49.20
60820;BME280;46641;48.904;9.126;2023-05-24T09:15:25;99020.47;;;19.30;49.34
60820;BME280;46641;48.904;9.126;2023-05-24T09:20:16;99007.84;;;19.32;49.39
60820;BME280;46641;48.904;9.126;2023-05-24T09:25:09;99018.47;;;19.32;49.11
60820;BME280;46641;48.904;9.126;2023-05-24T09:30:01;99026.44;;;19.32;49.29
60820;BME280;46641;48.904;9.126;2023-05-24T09:34:56;99026.44;;;19.32;49.10
60820;BME280;46641;48.904;9.126;2023-05-24T09:39:47;99028.06;;;19.33;49.24
60820;BME280;46641;48.904;9.126;2023-05-24T09:44:39;99031.53;;;19.33;49.14
60820;BME280;46641;48.904;9.126;2023-05-24T09:49:30;99031.16;;;19.36;49.32
60820;BME280;46641;48.904;9.126;2023-05-24T09:54:20;99032.00;;;19.37;49.29
60820;BME280;46641;48.904;9.126;2023-05-24T09:59:12;99015.31;;;19.22;47.38
60820;BME280;46641;48.904;9.126;2023-05-24T10:04:03;99025.25;;;18.91;45.54
60820;BME280;46641;48.904;9.126;2023-05-24T10:08:56;99028.66;;;18.71;45.61
60820;BME280;46641;48.904;9.126;2023-05-24T10:13:47;99022.81;;;18.60;45.16
60820;BME280;46641;48.904;9.126;2023-05-24T10:18:38;99025.19;;;18.55;45.22
60820;BME280;46641;48.904;9.126;2023-05-24T10:23:29;99025.31;;;18.47;44.39
60820;BME280;46641;48.904;9.126;2023-05-24T10:28:21;99020.28;;;18.52;44.98
60820;BME280;46641;48.904;9.126;2023-05-24T10:33:13;99009.50;;;18.54;45.03
60820;BME280;46641;48.904;9.126;2023-05-24T10:38:05;99010.16;;;18.56;45.12
60820;BME280;46641;48.904;9.126;2023-05-24T10:42:56;99011.78;;;18.42;44.84
60820;BME280;46641;48.904;9.126;2023-05-24T10:47:47;99009.13;;;18.42;44.48
60820;BME280;46641;48.904;9.126;2023-05-24T10:52:38;99001.72;;;18.52;44.43
60820;BME280;46641;48.904;9.126;2023-05-24T10:57:28;99011.63;;;18.43;44.74
60820;BME280;46641;48.904;9.126;2023-05-24T11:02:21;98998.59;;;18.27;45.64
60820;BME280;46641;48.904;9.126;2023-05-24T11:07:14;98992.34;;;18.86;44.98
60820;BME280;46641;48.904;9.126;2023-05-24T11:12:07;98996.50;;;19.17;44.56
60820;BME280;46641;48.904;9.126;2023-05-24T11:16:58;98997.03;;;19.33;44.44
60820;BME280;46641;48.904;9.126;2023-05-24T11:21:52;98991.00;;;19.46;44.41
60820;BME280;46641;48.904;9.126;2023-05-24T11:26:49;98987.84;;;19.57;44.51
60820;BME280;46641;48.904;9.126;2023-05-24T11:31:46;98980.59;;;19.66;44.57
60820;BME280;46641;48.904;9.126;2023-05-24T11:36:36;98985.94;;;19.73;44.91
60820;BME280;46641;48.904;9.126;2023-05-24T11:41:27;98979.63;;;19.80;44.79
60820;BME280;46641;48.904;9.126;2023-05-24T11:46:18;98972.53;;;19.88;45.27
60820;BME280;46641;48.904;9.126;2023-05-24T11:51:09;98966.22;;;19.95;45.35
60820;BME280;46641;48.904;9.126;2023-05-24T11:56:00;98963.84;;;20.07;45.60
60820;BME280;46641;48.904;9.126;2023-05-24T12:00:51;98959.19;;;20.16;46.23
60820;BME280;46641;48.904;9.126;2023-05-24T12:05:42;98954.31;;;20.26;46.47
60820;BME280;46641;48.904;9.126;2023-05-24T12:10:34;98939.44;;;20.38;46.31
60820;BME280;46641;48.904;9.126;2023-05-24T12:15:24;98939.66;;;20.50;46.68
60820;BME280;46641;48.904;9.126;2023-05-24T12:20:16;98927.03;;;20.59;46.61
60820;BME280;46641;48.904;9.126;2023-05-24T12:25:08;98936.03;;;20.58;47.00
60820;BME280;46641;48.904;9.126;2023-05-24T12:30:05;98929.91;;;20.64;47.04
60820;BME280;46641;48.904;9.126;2023-05-24T12:34:56;98931.75;;;20.70;47.22
60820;BME280;46641;48.904;9.126;2023-05-24T12:39:46;98915.50;;;20.38;39.94
60820;BME280;46641;48.904;9.126;2023-05-24T12:44:37;98912.31;;;20.08;41.37
60820;BME280;46641;48.904;9.126;2023-05-24T12:49:28;98906.81;;;20.03;40.20
60820;BME280;46641;48.904;9.126;2023-05-24T12:54:20;98915.94;;;19.94;39.96
60820;BME280;46641;48.904;9.126;2023-05-24T12:59:11;98914.94;;;19.95;43.57
60820;BME280;46641;48.904;9.126;2023-05-24T13:04:02;98915.31;;;20.46;42.55
60820;BME280;46641;48.904;9.126;2023-05-24T13:08:52;98910.66;;;20.62;42.13
60820;BME280;46641;48.904;9.126;2023-05-24T13:13:43;98900.84;;;20.82;42.61
60820;BME280;46641;48.904;9.126;2023-05-24T13:18:35;98894.94;;;21.00;42.34
60820;BME280;46641;48.904;9.126;2023-05-24T13:23:26;98894.53;;;21.10;42.77
60820;BME280;46641;48.904;9.126;2023-05-24T13:28:16;98888.78;;;21.13;42.75
60820;BME280;46641;48.904;9.126;2023-05-24T13:33:07;98881.19;;;21.23;42.97
60820;BME280;46641;48.904;9.126;2023-05-24T13:37:57;98872.78;;;21.33;43.18
60820;BME280;46641;48.904;9.126;2023-05-24T13:42:48;98872.19;;;21.37;38.24
60820;BME280;46641;48.904;9.126;2023-05-24T13:47:38;98873.84;;;20.52;37.70
60820;BME280;46641;48.904;9.126;2023-05-24T13:52:29;98871.81;;;20.67;41.62
60820;BME280;46641;48.904;9.126;2023-05-24T13:57:20;98869.97;;;21.01;40.54
60820;BME280;46641;48.904;9.126;2023-05-24T14:02:10;98871.16;;;21.18;40.49
60820;BME280;46641;48.904;9.126;2023-05-24T14:07:00;98862.97;;;21.40;41.28
60820;BME280;46641;48.904;9.126;2023-05-24T14:11:51;98868.25;;;21.53;41.49
60820;BME280;46641;48.904;9.126;2023-05-24T14:16:42;98872.19;;;21.24;40.63
60820;BME280;46641;48.904;9.126;2023-05-24T14:21:32;98867.47;;;21.39;40.66
60820;BME280;46641;48.904;9.126;2023-05-24T14:26:22;98865.63;;;21.46;40.88
60820;BME280;46641;48.904;9.126;2023-05-24T14:31:13;98868.47;;;21.52;41.11
60820;BME280;46641;48.904;9.126;2023-05-24T14:36:03;98871.13;;;21.58;41.21
60820;BME280;46641;48.904;9.126;2023-05-24T14:40:54;98860.88;;;21.62;41.93
60820;BME280;46641;48.904;9.126;2023-05-24T14:45:45;98855.72;;;21.67;41.40
60820;BME280;46641;48.904;9.126;2023-05-24T14:50:36;98858.56;;;21.72;41.74
60820;BME280;46641;48.904;9.126;2023-05-24T14:55:27;98857.72;;;21.78;41.93
60820;BME280;46641;48.904;9.126;2023-05-24T15:00:18;98865.88;;;21.83;42.00
60820;BME280;46641;48.904;9.126;2023-05-24T15:05:08;98855.84;;;20.81;34.88
60820;BME280;46641;48.904;9.126;2023-05-24T15:09:58;98857.88;;;20.85;37.15
60820;BME280;46641;48.904;9.126;2023-05-24T15:14:49;98850.53;;;20.87;37.34
60820;BME280;46641;48.904;9.126;2023-05-24T15:19:39;98855.63;;;20.75;35.17
60820;BME280;46641;48.904;9.126;2023-05-24T15:24:29;98850.94;;;20.58;34.65
60820;BME280;46641;48.904;9.126;2023-05-24T15:29:20;98851.31;;;20.48;35.11
60820;BME280;46641;48.904;9.126;2023-05-24T15:34:10;98848.81;;;20.46;33.93
60820;BME280;46641;48.904;9.126;2023-05-24T15:39:01;98846.44;;;20.58;35.80
60820;BME280;46641;48.904;9.126;2023-05-24T15:43:51;98851.53;;;20.53;35.43
60820;BME280;46641;48.904;9.126;2023-05-24T15:48:41;98854.41;;;20.58;36.58
60820;BME280;46641;48.904;9.126;2023-05-24T15:53:32;98848.91;;;20.93;36.82
60820;BME280;46641;48.904;9.126;2023-05-24T15:58:22;98857.03;;;21.11;36.90
60820;BME280;46641;48.904;9.126;2023-05-24T16:03:13;98845.75;;;21.29;37.01
60820;BME280;46641;48.904;9.126;2023-05-24T16:08:04;98842.69;;;21.39;37.27
60820;BME280;46641;48.904;9.126;2023-05-24T16:12:54;98848.44;;;21.42;37.48
60820;BME280;46641;48.904;9.126;2023-05-24T16:17:45;98849.84;;;21.38;37.79
60820;BME280;46641;48.904;9.126;2023-05-24T16:22:35;98847.81;;;21.40;38.17
60820;BME280;46641;48.904;9.126;2023-05-24T16:27:26;98856.41;;;21.42;38.24
60820;BME280;46641;48.904;9.126;2023-05-24T16:32:16;98852.91;;;21.49;38.22
60820;BME280;46641;48.904;9.126;2023-05-24T16:37:06;98840.81;;;21.53;38.42
60820;BME280;46641;48.904;9.126;2023-05-24T16:41:57;98841.63;;;21.53;38.74
60820;BME280;46641;48.904;9.126;2023-05-24T16:46:47;98840.19;;;21.51;38.85
60820;BME280;46641;48.904;9.126;2023-05-24T16:51:37;98849.22;;;21.50;38.89
60820;BME280;46641;48.904;9.126;2023-05-24T16:56:28;98846.75;;;21.41;38.81
60820;BME280;46641;48.904;9.126;2023-05-24T17:01:18;98844.53;;;21.38;39.42
60820;BME280;46641;48.904;9.126;2023-05-24T17:06:08;98853.13;;;21.40;39.64
60820;BME280;46641;48.904;9.126;2023-05-24T17:10:59;98854.75;;;21.41;39.47
60820;BME280;46641;48.904;9.126;2023-05-24T17:15:49;98859.69;;;21.38;38.99
60820;BME280;46641;48.904;9.126;2023-05-24T17:20:43;98851.09;;;21.36;39.64
60820;BME280;46641;48.904;9.126;2023-05-24T17:25:33;98852.09;;;21.35;39.82
60820;BME280;46641;48.904;9.126;2023-05-24T17:30:24;98854.16;;;21.33;39.71
60820;BME280;46641;48.904;9.126;2023-05-24T17:35:16;98860.50;;;21.38;40.05
60820;BME280;46641;48.904;9.126;2023-05-24T17:40:07;98866.28;;;21.35;39.44
60820;BME280;46641;48.904;9.126;2023-05-24T17:44:58;98867.91;;;21.36;40.14
60820;BME280;46641;48.904;9.126;2023-05-24T17:49:48;98873.59;;;21.33;40.06
60820;BME280;46641;48.904;9.126;2023-05-24T17:54:39;98882.25;;;21.35;40.20
60820;BME280;46641;48.904;9.126;2023-05-24T17:59:29;98879.59;;;21.35;40.20
60820;BME280;46641;48.904;9.126;2023-05-24T18:04:20;98884.25;;;21.33;40.28
60820;BME280;46641;48.904;9.126;2023-05-24T18:09:10;98879.13;;;21.25;40.18
60820;BME280;46641;48.904;9.126;2023-05-24T18:14:02;98887.53;;;21.22;39.69
60820;BME280;46641;48.904;9.126;2023-05-24T18:18:52;98882.44;;;21.20;40.24
60820;BME280;46641;48.904;9.126;2023-05-24T18:23:43;98892.88;;;21.15;39.79
60820;BME280;46641;48.904;9.126;2023-05-24T18:28:34;98892.06;;;21.15;40.52
60820;BME280;46641;48.904;9.126;2023-05-24T18:33:28;98897.38;;;21.15;40.37
60820;BME280;46641;48.904;9.126;2023-05-24T18:38:18;98898.19;;;21.15;40.51
60820;BME280;46641;48.904;9.126;2023-05-24T18:43:09;98908.03;;;21.15;40.42
60820;BME280;46641;48.904;9.126;2023-05-24T18:47:59;98916.41;;;21.12;40.65
60820;BME280;46641;48.904;9.126;2023-05-24T18:52:50;98917.44;;;21.11;40.78
60820;BME280;46641;48.904;9.126;2023-05-24T18:57:40;98924.00;;;21.08;40.87
60820;BME280;46641;48.904;9.126;2023-05-24T19:02:30;98925.84;;;21.08;40.98
60820;BME280;46641;48.904;9.126;2023-05-24T19:07:21;98925.84;;;21.08;40.97
60820;BME280;46641;48.904;9.126;2023-05-24T19:12:11;98934.25;;;21.05;41.11
60820;BME280;46641;48.904;9.126;2023-05-24T19:17:02;98933.81;;;21.01;41.27
60820;BME280;46641;48.904;9.126;2023-05-24T19:21:52;98947.13;;;21.01;41.22
60820;BME280;46641;48.904;9.126;2023-05-24T19:26:42;98936.09;;;20.97;41.14
60820;BME280;46641;48.904;9.126;2023-05-24T19:31:33;98938.34;;;20.94;41.31
60820;BME280;46641;48.904;9.126;2023-05-24T19:36:25;98954.72;;;20.91;41.43
60820;BME280;46641;48.904;9.126;2023-05-24T19:41:15;98949.78;;;20.88;41.21
60820;BME280;46641;48.904;9.126;2023-05-24T19:46:05;98954.06;;;20.82;41.24
60820;BME280;46641;48.904;9.126;2023-05-24T19:50:56;98967.19;;;20.77;41.27
60820;BME280;46641;48.904;9.126;2023-05-24T19:55:46;98971.25;;;20.73;41.41
60820;BME280;46641;48.904;9.126;2023-05-24T20:00:36;98964.06;;;20.67;41.58
60820;BME280;46641;48.904;9.126;2023-05-24T20:05:27;98962.84;;;20.63;42.04
60820;BME280;46641;48.904;9.126;2023-05-24T20:10:17;98956.06;;;20.60;41.93
60820;BME280;46641;48.904;9.126;2023-05-24T20:15:08;98961.59;;;20.59;42.17
60820;BME280;46641;48.904;9.126;2023-05-24T20:19:59;98971.00;;;20.54;42.28
60820;BME280;46641;48.904;9.126;2023-05-24T20:24:49;98965.28;;;20.51;42.18
60820;BME280;46641;48.904;9.126;2023-05-24T20:29:41;98967.88;;;20.44;42.18
60820;BME280;46641;48.904;9.126;2023-05-24T20:34:31;98967.44;;;20.41;42.46
60820;BME280;46641;48.904;9.126;2023-05-24T20:39:22;98971.09;;;20.33;42.62
60820;BME280;46641;48.904;9.126;2023-05-24T20:44:12;98971.06;;;20.26;42.58
60820;BME280;46641;48.904;9.126;2023-05-24T20:49:02;98973.91;;;20.18;42.74
60820;BME280;46641;48.904;9.126;2023-05-24T20:53:52;98967.34;;;20.14;43.09
60820;BME280;46641;48.904;9.126;2023-05-24T20:58:43;98973.03;;;20.11;42.94
60820;BME280;46641;48.904;9.126;2023-05-24T21:03:35;98978.34;;;20.04;43.31
60820;BME280;46641;48.904;9.126;2023-05-24T21:08:25;98976.28;;;20.00;43.23
60820;BME280;46641;48.904;9.126;2023-05-24T21:13:15;98966.84;;;19.97;43.39
60820;BME280;46641;48.904;9.126;2023-05-24T21:18:09;98970.28;;;19.91;43.34
60820;BME280;46641;48.904;9.126;2023-05-24T21:22:59;98983.16;;;19.88;43.45
60820;BME280;46641;48.904;9.126;2023-05-24T21:27:49;98974.97;;;19.82;43.61
60820;BME280;46641;48.904;9.126;2023-05-24T21:32:40;98986.97;;;19.78;43.66
60820;BME280;46641;48.904;9.126;2023-05-24T21:37:30;98976.53;;;19.70;43.50
60820;BME280;46641;48.904;9.126;2023-05-24T21:42:20;98977.72;;;19.68;43.94
60820;BME280;46641;48.904;9.126;2023-05-24T21:47:10;98992.41;;;19.64;43.94
60820;BME280;46641;48.904;9.126;2023-05-24T21:52:01;98987.44;;;19.60;43.76
60820;BME280;46641;48.904;9.126;2023-05-24T21:56:51;98991.53;;;19.56;44.14
60820;BME280;46641;48.904;9.126;2023-05-24T22:01:41;99001.88;;;19.51;44.01
60820;BME280;46641;48.904;9.126;2023-05-24T22:06:32;99008.22;;;19.50;43.92
60820;BME280;46641;48.904;9.126;2023-05-24T22:11:22;99009.41;;;19.48;44.29
60820;BME280;46641;48.904;9.126;2023-05-24T22:16:12;99001.63;;;19.46;44.23
60820;BME280;46641;48.904;9.126;2023-05-24T22:21:03;98991.78;;;19.40;44.34
60820;BME280;46641;48.904;9.126;2023-05-24T22:25:53;98996.47;;;19.38;44.55
60820;BME280;46641;48.904;9.126;2023-05-24T22:30:44;98995.41;;;19.32;44.38
60820;BME280;46641;48.904;9.126;2023-05-24T22:35:34;98994.16;;;19.28;44.84
60820;BME280;46641;48.904;9.126;2023-05-24T22:40:24;98995.13;;;19.21;44.05
60820;BME280;46641;48.904;9.126;2023-05-24T22:45:15;99002.22;;;19.20;44.31
60820;BME280;46641;48.904;9.126;2023-05-24T22:50:06;99000.34;;;19.14;44.64
60820;BME280;46641;48.904;9.126;2023-05-24T22:54:56;99000.34;;;19.14;44.67
60820;BME280;46641;48.904;9.126;2023-05-24T22:59:47;98999.47;;;19.07;44.76
60820;BME280;46641;48.904;9.126;2023-05-24T23:04:38;98994.16;;;19.07;44.69
60820;BME280;46641;48.904;9.126;2023-05-24T23:09:28;99002.13;;;19.07;44.70
60820;BME280;46641;48.904;9.126;2023-05-24T23:14:23;98998.00;;;19.04;44.76
60820;BME280;46641;48.904;9.126;2023-05-24T23:19:14;98994.72;;;19.02;44.70
60820;BME280;46641;48.904;9.126;2023-05-24T23:24:07;98995.94;;;19.00;44.93
60820;BME280;46641;48.904;9.126;2023-05-24T23:29:03;98994.47;;;18.97;45.05
60820;BME280;46641;48.904;9.126;2023-05-24T23:33:53;98997.50;;;18.94;44.96
60820;BME280;46641;48.904;9.126;2023-05-24T23:38:43;99003.38;;;18.89;45.29
60820;BME280;46641;48.904;9.126;2023-05-24T23:43:34;99010.53;;;18.89;45.11
60820;BME280;46641;48.904;9.126;2023-05-24T23:48:24;99002.31;;;18.84;45.30
60820;BME280;46641;48.904;9.126;2023-05-24T23:53:14;98993.09;;;18.80;45.24
60820;BME280;46641;48.904;9.126;2023-05-24T23:58:05;98996.75;;;18.79;45.28
